sensor_id;sensor_type;location;lat;lon;timestamp;P1;durP1;ratioP1;P2;durP2;ratioP2
16272;SDS011;8244;50.044;9.006;2023-04-21T00:01:09;26.10;;;19.63;;
16272;SDS011;8244;50.044;9.006;2023-04-21T00:06:13;31.30;;;24.50;;
16272;SDS011;8244;50.044;9.006;2023-04-21T00:11:21;30.05;;;24.45;;
16272;SDS011;8244;50.044;9.006;2023-04-21T00:16:23;29.45;;;23.52;;
16272;SDS011;8244;50.044;9.006;2023-04-21T00:21:26;29.55;;;22.88;;
16272;SDS011;8244;50.044;9.006;2023-04-21T00:26:27;32.15;;;25.17;;
16272;SDS011;8244;50.044;9.006;2023-04-21T00:31:29;34.45;;;25.25;;
16272;SDS011;8244;50.044;9.006;2023-04-21T00:36:32;25.95;;;20.58;;
16272;SDS011;8244;50.044;9.006;2023-04-21T00:41:34;33.70;;;25.35;;
16272;SDS011;8244;50.044;9.006;2023-04-21T00:46:38;29.88;;;22.17;;
16272;SDS011;8244;50.044;9.006;2023-04-21T00:51:43;34.80;;;23.80;;
16272;SDS011;8244;50.044;9.006;2023-04-21T00:56:45;22.08;;;16.85;;
16272;SDS011;8244;50.044;9.006;2023-04-21T01:01:47;33.75;;;25.77;;
16272;SDS011;8244;50.044;9.006;2023-04-21T01:06:50;27.08;;;20.98;;
16272;SDS011;8244;50.044;9.006;2023-04-21T01:12:01;47.28;;;29.42;;
16272;SDS011;8244;50.044;9.006;2023-04-21T01:17:04;40.55;;;29.58;;
16272;SDS011;8244;50.044;9.006;2023-04-21T01:22:08;40.50;;;30.02;;
16272;SDS011;8244;50.044;9.006;2023-04-21T01:27:11;44.95;;;29.55;;
16272;SDS011;8244;50.044;9.006;2023-04-21T01:32:15;36.85;;;26.40;;
16272;SDS011;8244;50.044;9.006;2023-04-21T01:37:20;34.47;;;25.48;;
16272;SDS011;8244;50.044;9.006;2023-04-21T01:42:25;39.20;;;28.63;;
16272;SDS011;8244;50.044;9.006;2023-04-21T01:47:28;39.42;;;29.15;;
16272;SDS011;8244;50.044;9.006;2023-04-21T01:52:31;153.85;;;25.00;;
16272;SDS011;8244;50.044;9.006;2023-04-21T01:57:33;183.55;;;32.47;;
16272;SDS011;8244;50.044;9.006;2023-04-21T02:02:35;60.70;;;24.30;;
16272;SDS011;8244;50.044;9.006;2023-04-21T02:07:38;92.90;;;24.67;;
16272;SDS011;8244;50.044;9.006;2023-04-21T02:12:39;626.45;;;40.47;;
16272;SDS011;8244;50.044;9.006;2023-04-21T02:17:41;529.13;;;33.60;;
16272;SDS011;8244;50.044;9.006;2023-04-21T02:22:45;470.23;;;38.47;;
16272;SDS011;8244;50.044;9.006;2023-04-21T02:27:46;242.45;;;31.48;;
16272;SDS011;8244;50.044;9.006;2023-04-21T02:32:48;129.10;;;26.05;;
16272;SDS011;8244;50.044;9.006;2023-04-21T02:37:51;48.55;;;26.38;;
16272;SDS011;8244;50.044;9.006;2023-04-21T02:42:53;69.03;;;33.75;;
16272;SDS011;8244;50.044;9.006;2023-04-21T02:47:54;49.85;;;30.10;;
16272;SDS011;8244;50.044;9.006;2023-04-21T02:52:59;52.45;;;31.50;;
16272;SDS011;8244;50.044;9.006;2023-04-21T02:58:00;42.22;;;26.42;;
16272;SDS011;8244;50.044;9.006;2023-04-21T03:03:02;60.58;;;34.00;;
16272;SDS011;8244;50.044;9.006;2023-04-21T03:08:05;52.33;;;30.48;;
16272;SDS011;8244;50.044;9.006;2023-04-21T03:13:07;38.80;;;25.58;;
16272;SDS011;8244;50.044;9.006;2023-04-21T03:18:08;52.08;;;29.42;;
16272;SDS011;8244;50.044;9.006;2023-04-21T03:23:11;37.95;;;25.52;;
16272;SDS011;8244;50.044;9.006;2023-04-21T03:28:13;35.78;;;25.90;;
16272;SDS011;8244;50.044;9.006;2023-04-21T03:33:15;40.05;;;25.25;;
16272;SDS011;8244;50.044;9.006;2023-04-21T03:38:18;41.50;;;28.50;;
16272;SDS011;8244;50.044;9.006;2023-04-21T03:43:20;40.60;;;27.45;;
16272;SDS011;8244;50.044;9.006;2023-04-21T03:48:22;43.08;;;27.90;;
16272;SDS011;8244;50.044;9.006;2023-04-21T03:53:25;43.70;;;28.73;;
16272;SDS011;8244;50.044;9.006;2023-04-21T03:58:26;41.58;;;27.95;;
16272;SDS011;8244;50.044;9.006;2023-04-21T04:03:28;59.47;;;29.10;;
16272;SDS011;8244;50.044;9.006;2023-04-21T04:08:31;40.63;;;27.80;;
16272;SDS011;8244;50.044;9.006;2023-04-21T04:13:33;36.97;;;26.63;;
16272;SDS011;8244;50.044;9.006;2023-04-21T04:18:34;39.17;;;27.65;;
16272;SDS011;8244;50.044;9.006;2023-04-21T04:23:37;37.90;;;23.90;;
16272;SDS011;8244;50.044;9.006;2023-04-21T04:28:39;37.75;;;24.30;;
16272;SDS011;8244;50.044;9.006;2023-04-21T04:33:41;39.40;;;23.23;;
16272;SDS011;8244;50.044;9.006;2023-04-21T04:38:44;35.38;;;22.33;;
16272;SDS011;8244;50.044;9.006;2023-04-21T04:43:46;35.05;;;24.30;;
16272;SDS011;8244;50.044;9.006;2023-04-21T04:48:47;32.67;;;23.38;;
16272;SDS011;8244;50.044;9.006;2023-04-21T04:53:50;33.47;;;23.63;;
16272;SDS011;8244;50.044;9.006;2023-04-21T04:58:52;27.17;;;19.52;;
16272;SDS011;8244;50.044;9.006;2023-04-21T05:03:54;68.63;;;27.42;;
16272;SDS011;8244;50.044;9.006;2023-04-21T05:08:57;105.95;;;27.23;;
16272;SDS011;8244;50.044;9.006;2023-04-21T05:13:58;89.65;;;26.40;;
16272;SDS011;8244;50.044;9.006;2023-04-21T05:19:00;174.10;;;27.50;;
16272;SDS011;8244;50.044;9.006;2023-04-21T05:24:03;217.70;;;29.08;;
16272;SDS011;8244;50.044;9.006;2023-04-21T05:29:05;38.13;;;23.50;;
16272;SDS011;8244;50.044;9.006;2023-04-21T05:34:07;34.50;;;21.67;;
16272;SDS011;8244;50.044;9.006;2023-04-21T05:39:10;49.25;;;23.20;;
16272;SDS011;8244;50.044;9.006;2023-04-21T05:44:11;48.58;;;24.25;;
16272;SDS011;8244;50.044;9.006;2023-04-21T05:49:13;40.90;;;25.02;;
16272;SDS011;8244;50.044;9.006;2023-04-21T05:54:16;41.88;;;25.52;;
16272;SDS011;8244;50.044;9.006;2023-04-21T05:59:18;46.92;;;25.42;;
16272;SDS011;8244;50.044;9.006;2023-04-21T06:04:20;43.42;;;26.13;;
16272;SDS011;8244;50.044;9.006;2023-04-21T06:09:23;67.35;;;28.55;;
16272;SDS011;8244;50.044;9.006;2023-04-21T06:14:24;77.75;;;26.33;;
16272;SDS011;8244;50.044;9.006;2023-04-21T06:19:26;45.65;;;26.30;;
16272;SDS011;8244;50.044;9.006;2023-04-21T06:24:31;47.53;;;27.98;;
16272;SDS011;8244;50.044;9.006;2023-04-21T06:29:33;71.28;;;28.85;;
16272;SDS011;8244;50.044;9.006;2023-04-21T06:34:35;42.35;;;26.05;;
16272;SDS011;8244;50.044;9.006;2023-04-21T06:39:38;43.70;;;26.98;;
16272;SDS011;8244;50.044;9.006;2023-04-21T06:44:40;45.80;;;26.38;;
16272;SDS011;8244;50.044;9.006;2023-04-21T06:49:41;38.75;;;23.48;;
16272;SDS011;8244;50.044;9.006;2023-04-21T06:54:44;38.05;;;24.92;;
16272;SDS011;8244;50.044;9.006;2023-04-21T06:59:46;34.88;;;24.02;;
16272;SDS011;8244;50.044;9.006;2023-04-21T07:04:48;35.15;;;22.90;;
16272;SDS011;8244;50.044;9.006;2023-04-21T07:09:50;34.88;;;24.08;;
16272;SDS011;8244;50.044;9.006;2023-04-21T07:14:52;31.42;;;21.02;;
16272;SDS011;8244;50.044;9.006;2023-04-21T07:19:54;30.38;;;21.33;;
16272;SDS011;8244;50.044;9.006;2023-04-21T07:24:57;30.60;;;20.92;;
16272;SDS011;8244;50.044;9.006;2023-04-21T07:29:59;26.92;;;18.63;;
16272;SDS011;8244;50.044;9.006;2023-04-21T07:35:00;26.65;;;18.58;;
16272;SDS011;8244;50.044;9.006;2023-04-21T07:40:04;27.38;;;19.98;;
16272;SDS011;8244;50.044;9.006;2023-04-21T07:45:07;27.08;;;19.25;;
16272;SDS011;8244;50.044;9.006;2023-04-21T07:50:09;26.85;;;19.95;;
16272;SDS011;8244;50.044;9.006;2023-04-21T07:55:12;29.55;;;20.65;;
16272;SDS011;8244;50.044;9.006;2023-04-21T08:00:15;29.23;;;20.10;;
16272;SDS011;8244;50.044;9.006;2023-04-21T08:05:17;23.17;;;18.23;;
16272;SDS011;8244;50.044;9.006;2023-04-21T08:10:20;23.60;;;18.42;;
16272;SDS011;8244;50.044;9.006;2023-04-21T08:15:22;24.45;;;17.17;;
16272;SDS011;8244;50.044;9.006;2023-04-21T08:20:23;23.50;;;18.15;;
16272;SDS011;8244;50.044;9.006;2023-04-21T08:25:26;21.60;;;17.40;;
16272;SDS011;8244;50.044;9.006;2023-04-21T08:30:28;23.83;;;18.10;;
16272;SDS011;8244;50.044;9.006;2023-04-21T08:35:30;23.58;;;18.98;;
16272;SDS011;8244;50.044;9.006;2023-04-21T08:40:34;23.85;;;18.77;;
16272;SDS011;8244;50.044;9.006;2023-04-21T08:45:37;22.92;;;18.13;;
16272;SDS011;8244;50.044;9.006;2023-04-21T08:50:41;28.17;;;19.13;;
16272;SDS011;8244;50.044;9.006;2023-04-21T08:55:47;23.42;;;17.48;;
16272;SDS011;8244;50.044;9.006;2023-04-21T09:00:52;23.50;;;17.55;;
16272;SDS011;8244;50.044;9.006;2023-04-21T09:05:56;20.08;;;15.98;;
16272;SDS011;8244;50.044;9.006;2023-04-21T09:11:00;22.33;;;16.45;;
16272;SDS011;8244;50.044;9.006;2023-04-21T09:16:04;23.23;;;17.13;;
16272;SDS011;8244;50.044;9.006;2023-04-21T09:21:15;21.70;;;16.42;;
16272;SDS011;8244;50.044;9.006;2023-04-21T09:26:20;22.55;;;16.17;;
16272;SDS011;8244;50.044;9.006;2023-04-21T09:31:23;22.58;;;17.40;;
16272;SDS011;8244;50.044;9.006;2023-04-21T09:36:25;22.73;;;17.40;;
16272;SDS011;8244;50.044;9.006;2023-04-21T09:41:29;21.33;;;17.40;;
16272;SDS011;8244;50.044;9.006;2023-04-21T09:46:34;19.50;;;16.50;;
16272;SDS011;8244;50.044;9.006;2023-04-21T09:51:36;21.15;;;16.15;;
16272;SDS011;8244;50.044;9.006;2023-04-21T09:56:40;22.23;;;16.70;;
16272;SDS011;8244;50.044;9.006;2023-04-21T10:01:44;20.02;;;16.00;;
16272;SDS011;8244;50.044;9.006;2023-04-21T10:06:48;21.08;;;16.67;;
16272;SDS011;8244;50.044;9.006;2023-04-21T10:11:52;22.13;;;16.77;;
16272;SDS011;8244;50.044;9.006;2023-04-21T10:16:54;19.85;;;15.63;;
16272;SDS011;8244;50.044;9.006;2023-04-21T10:21:56;22.60;;;16.67;;
16272;SDS011;8244;50.044;9.006;2023-04-21T10:27:00;22.38;;;15.63;;
16272;SDS011;8244;50.044;9.006;2023-04-21T10:32:02;22.63;;;16.27;;
16272;SDS011;8244;50.044;9.006;2023-04-21T10:37:11;21.13;;;15.50;;
16272;SDS011;8244;50.044;9.006;2023-04-21T10:42:18;19.65;;;16.23;;
16272;SDS011;8244;50.044;9.006;2023-04-21T10:47:25;18.45;;;14.98;;
16272;SDS011;8244;50.044;9.006;2023-04-21T10:52:30;18.00;;;14.43;;
16272;SDS011;8244;50.044;9.006;2023-04-21T10:57:34;19.02;;;13.48;;
16272;SDS011;8244;50.044;9.006;2023-04-21T11:02:36;18.73;;;13.15;;
16272;SDS011;8244;50.044;9.006;2023-04-21T11:07:38;16.45;;;13.52;;
16272;SDS011;8244;50.044;9.006;2023-04-21T11:12:42;19.70;;;13.38;;
16272;SDS011;8244;50.044;9.006;2023-04-21T11:17:44;14.85;;;12.27;;
16272;SDS011;8244;50.044;9.006;2023-04-21T11:22:48;16.40;;;12.18;;
16272;SDS011;8244;50.044;9.006;2023-04-21T11:27:54;17.60;;;12.82;;
16272;SDS011;8244;50.044;9.006;2023-04-21T11:32:58;14.60;;;11.10;;
16272;SDS011;8244;50.044;9.006;2023-04-21T11:38:03;13.18;;;10.50;;
16272;SDS011;8244;50.044;9.006;2023-04-21T11:43:06;14.48;;;9.63;;
16272;SDS011;8244;50.044;9.006;2023-04-21T11:48:11;15.48;;;10.48;;
16272;SDS011;8244;50.044;9.006;2023-04-21T11:53:14;12.82;;;9.43;;
16272;SDS011;8244;50.044;9.006;2023-04-21T11:58:18;11.98;;;7.95;;
16272;SDS011;8244;50.044;9.006;2023-04-21T12:03:21;12.60;;;9.13;;
16272;SDS011;8244;50.044;9.006;2023-04-21T12:08:22;15.45;;;9.23;;
16272;SDS011;8244;50.044;9.006;2023-04-21T12:13:27;12.95;;;9.27;;
16272;SDS011;8244;50.044;9.006;2023-04-21T12:18:30;13.93;;;9.00;;
16272;SDS011;8244;50.044;9.006;2023-04-21T12:23:32;14.50;;;8.50;;
16272;SDS011;8244;50.044;9.006;2023-04-21T12:28:35;14.75;;;9.48;;
16272;SDS011;8244;50.044;9.006;2023-04-21T12:33:37;11.82;;;8.60;;
16272;SDS011;8244;50.044;9.006;2023-04-21T12:38:39;10.27;;;7.70;;
16272;SDS011;8244;50.044;9.006;2023-04-21T12:43:43;14.82;;;9.80;;
16272;SDS011;8244;50.044;9.006;2023-04-21T12:48:45;13.63;;;8.43;;
16272;SDS011;8244;50.044;9.006;2023-04-21T12:53:47;11.10;;;7.85;;
16272;SDS011;8244;50.044;9.006;2023-04-21T12:58:51;10.60;;;7.82;;
16272;SDS011;8244;50.044;9.006;2023-04-21T13:03:52;10.02;;;7.18;;
16272;SDS011;8244;50.044;9.006;2023-04-21T13:08:54;11.60;;;7.45;;
16272;SDS011;8244;50.044;9.006;2023-04-21T13:13:57;10.95;;;7.72;;
16272;SDS011;8244;50.044;9.006;2023-04-21T13:18:59;12.02;;;8.30;;
16272;SDS011;8244;50.044;9.006;2023-04-21T13:24:00;10.38;;;7.43;;
16272;SDS011;8244;50.044;9.006;2023-04-21T13:29:04;8.50;;;6.57;;
16272;SDS011;8244;50.044;9.006;2023-04-21T13:34:05;10.23;;;7.05;;
16272;SDS011;8244;50.044;9.006;2023-04-21T13:39:07;11.23;;;7.45;;
16272;SDS011;8244;50.044;9.006;2023-04-21T13:44:11;9.55;;;6.95;;
16272;SDS011;8244;50.044;9.006;2023-04-21T13:49:12;10.32;;;7.13;;
16272;SDS011;8244;50.044;9.006;2023-04-21T13:54:14;9.85;;;7.03;;
16272;SDS011;8244;50.044;9.006;2023-04-21T13:59:17;10.00;;;6.70;;
16272;SDS011;8244;50.044;9.006;2023-04-21T14:04:20;16.35;;;7.25;;
16272;SDS011;8244;50.044;9.006;2023-04-21T14:09:21;10.48;;;6.10;;
16272;SDS011;8244;50.044;9.006;2023-04-21T14:14:24;10.40;;;6.53;;
16272;SDS011;8244;50.044;9.006;2023-04-21T14:19:26;10.18;;;6.65;;
16272;SDS011;8244;50.044;9.006;2023-04-21T14:24:29;9.25;;;6.97;;
16272;SDS011;8244;50.044;9.006;2023-04-21T14:29:32;9.18;;;6.15;;
16272;SDS011;8244;50.044;9.006;2023-04-21T14:34:34;9.93;;;6.70;;
16272;SDS011;8244;50.044;9.006;2023-04-21T14:39:36;7.53;;;5.85;;
16272;SDS011;8244;50.044;9.006;2023-04-21T14:44:38;10.45;;;6.40;;
16272;SDS011;8244;50.044;9.006;2023-04-21T14:49:40;10.35;;;6.10;;
16272;SDS011;8244;50.044;9.006;2023-04-21T14:54:42;10.35;;;6.38;;
16272;SDS011;8244;50.044;9.006;2023-04-21T14:59:45;8.23;;;5.80;;
16272;SDS011;8244;50.044;9.006;2023-04-21T15:04:47;8.27;;;5.50;;
16272;SDS011;8244;50.044;9.006;2023-04-21T15:09:49;9.32;;;5.70;;
16272;SDS011;8244;50.044;9.006;2023-04-21T15:14:52;8.38;;;5.65;;
16272;SDS011;8244;50.044;9.006;2023-04-21T15:19:54;9.18;;;5.28;;
16272;SDS011;8244;50.044;9.006;2023-04-21T15:24:55;7.65;;;5.57;;
16272;SDS011;8244;50.044;9.006;2023-04-21T15:29:58;8.15;;;5.25;;
16272;SDS011;8244;50.044;9.006;2023-04-21T15:35:01;7.13;;;4.70;;
16272;SDS011;8244;50.044;9.006;2023-04-21T15:40:03;6.45;;;4.78;;
16272;SDS011;8244;50.044;9.006;2023-04-21T15:45:07;7.80;;;4.97;;
16272;SDS011;8244;50.044;9.006;2023-04-21T15:50:10;5.50;;;4.25;;
16272;SDS011;8244;50.044;9.006;2023-04-21T15:55:12;7.45;;;4.07;;
16272;SDS011;8244;50.044;9.006;2023-04-21T16:00:16;6.05;;;3.83;;
16272;SDS011;8244;50.044;9.006;2023-04-21T16:05:17;6.25;;;3.95;;
16272;SDS011;8244;50.044;9.006;2023-04-21T16:10:19;6.70;;;4.50;;
16272;SDS011;8244;50.044;9.006;2023-04-21T16:15:22;7.25;;;4.70;;
16272;SDS011;8244;50.044;9.006;2023-04-21T16:20:24;6.68;;;4.22;;
16272;SDS011;8244;50.044;9.006;2023-04-21T16:25:26;6.07;;;4.22;;
16272;SDS011;8244;50.044;9.006;2023-04-21T16:30:29;4.38;;;3.53;;
16272;SDS011;8244;50.044;9.006;2023-04-21T16:35:31;4.30;;;3.35;;
16272;SDS011;8244;50.044;9.006;2023-04-21T16:40:33;5.13;;;3.20;;
16272;SDS011;8244;50.044;9.006;2023-04-21T16:45:36;7.38;;;3.50;;
16272;SDS011;8244;50.044;9.006;2023-04-21T16:50:38;7.70;;;3.15;;
16272;SDS011;8244;50.044;9.006;2023-04-21T16:55:40;3.55;;;3.03;;
16272;SDS011;8244;50.044;9.006;2023-04-21T17:00:43;5.20;;;3.45;;
16272;SDS011;8244;50.044;9.006;2023-04-21T17:05:45;6.13;;;3.35;;
16272;SDS011;8244;50.044;9.006;2023-04-21T17:10:47;4.00;;;3.13;;
16272;SDS011;8244;50.044;9.006;2023-04-21T17:15:50;4.28;;;2.90;;
16272;SDS011;8244;50.044;9.006;2023-04-21T17:20:51;4.43;;;3.40;;
16272;SDS011;8244;50.044;9.006;2023-04-21T17:25:53;4.38;;;3.20;;
16272;SDS011;8244;50.044;9.006;2023-04-21T17:30:56;5.32;;;3.10;;
16272;SDS011;8244;50.044;9.006;2023-04-21T17:35:58;3.58;;;2.97;;
16272;SDS011;8244;50.044;9.006;2023-04-21T17:40:59;6.18;;;3.50;;
16272;SDS011;8244;50.044;9.006;2023-04-21T17:46:03;4.65;;;3.00;;
16272;SDS011;8244;50.044;9.006;2023-04-21T17:51:05;6.95;;;3.20;;
16272;SDS011;8244;50.044;9.006;2023-04-21T17:56:08;6.00;;;3.60;;
16272;SDS011;8244;50.044;9.006;2023-04-21T18:01:11;7.70;;;3.85;;
16272;SDS011;8244;50.044;9.006;2023-04-21T18:06:13;6.80;;;4.10;;
16272;SDS011;8244;50.044;9.006;2023-04-21T18:11:15;7.13;;;3.70;;
16272;SDS011;8244;50.044;9.006;2023-04-21T18:16:18;6.95;;;3.80;;
16272;SDS011;8244;50.044;9.006;2023-04-21T18:21:20;8.57;;;5.25;;
16272;SDS011;8244;50.044;9.006;2023-04-21T18:26:21;9.82;;;6.13;;
16272;SDS011;8244;50.044;9.006;2023-04-21T18:31:26;13.02;;;7.25;;
16272;SDS011;8244;50.044;9.006;2023-04-21T18:36:30;8.82;;;4.82;;
16272;SDS011;8244;50.044;9.006;2023-04-21T18:41:32;4.82;;;3.40;;
16272;SDS011;8244;50.044;9.006;2023-04-21T18:46:35;7.03;;;4.47;;
16272;SDS011;8244;50.044;9.006;2023-04-21T18:51:36;6.20;;;4.15;;
16272;SDS011;8244;50.044;9.006;2023-04-21T18:56:38;6.47;;;3.60;;
16272;SDS011;8244;50.044;9.006;2023-04-21T19:01:41;4.60;;;3.53;;
16272;SDS011;8244;50.044;9.006;2023-04-21T19:06:43;4.53;;;2.97;;
16272;SDS011;8244;50.044;9.006;2023-04-21T19:11:45;6.03;;;3.60;;
16272;SDS011;8244;50.044;9.006;2023-04-21T19:16:48;7.47;;;3.25;;
16272;SDS011;8244;50.044;9.006;2023-04-21T19:21:51;3.90;;;3.20;;
16272;SDS011;8244;50.044;9.006;2023-04-21T19:26:53;5.38;;;2.60;;
16272;SDS011;8244;50.044;9.006;2023-04-21T19:31:57;3.53;;;2.67;;
16272;SDS011;8244;50.044;9.006;2023-04-21T19:36:59;7.80;;;3.13;;
16272;SDS011;8244;50.044;9.006;2023-04-21T19:42:01;3.78;;;2.80;;
16272;SDS011;8244;50.044;9.006;2023-04-21T19:47:04;4.32;;;2.90;;
16272;SDS011;8244;50.044;9.006;2023-04-21T19:52:06;4.32;;;2.85;;
16272;SDS011;8244;50.044;9.006;2023-04-21T19:57:07;4.20;;;2.83;;
16272;SDS011;8244;50.044;9.006;2023-04-21T20:02:10;6.53;;;4.00;;
16272;SDS011;8244;50.044;9.006;2023-04-21T20:07:12;10.35;;;5.80;;
16272;SDS011;8244;50.044;9.006;2023-04-21T20:12:14;5.25;;;3.30;;
16272;SDS011;8244;50.044;9.006;2023-04-21T20:17:17;4.60;;;2.95;;
16272;SDS011;8244;50.044;9.006;2023-04-21T20:22:19;5.60;;;3.25;;
16272;SDS011;8244;50.044;9.006;2023-04-21T20:27:21;6.55;;;3.50;;
16272;SDS011;8244;50.044;9.006;2023-04-21T20:32:24;5.60;;;3.92;;
16272;SDS011;8244;50.044;9.006;2023-04-21T20:37:25;5.68;;;3.70;;
16272;SDS011;8244;50.044;9.006;2023-04-21T20:42:28;6.45;;;3.55;;
16272;SDS011;8244;50.044;9.006;2023-04-21T20:47:31;7.00;;;3.70;;
16272;SDS011;8244;50.044;9.006;2023-04-21T20:52:33;7.45;;;3.90;;
16272;SDS011;8244;50.044;9.006;2023-04-21T20:57:35;5.65;;;3.95;;
16272;SDS011;8244;50.044;9.006;2023-04-21T21:02:38;5.13;;;3.88;;
16272;SDS011;8244;50.044;9.006;2023-04-21T21:07:40;9.90;;;3.72;;
16272;SDS011;8244;50.044;9.006;2023-04-21T21:12:42;8.65;;;4.80;;
16272;SDS011;8244;50.044;9.006;2023-04-21T21:17:45;7.00;;;4.40;;
16272;SDS011;8244;50.044;9.006;2023-04-21T21:22:46;5.65;;;3.22;;
16272;SDS011;8244;50.044;9.006;2023-04-21T21:27:48;7.03;;;3.63;;
16272;SDS011;8244;50.044;9.006;2023-04-21T21:32:51;6.50;;;3.55;;
16272;SDS011;8244;50.044;9.006;2023-04-21T21:37:54;6.63;;;3.65;;
16272;SDS011;8244;50.044;9.006;2023-04-21T21:42:55;5.60;;;3.00;;
16272;SDS011;8244;50.044;9.006;2023-04-21T21:47:58;6.25;;;3.50;;
16272;SDS011;8244;50.044;9.006;2023-04-21T21:53:00;7.88;;;3.88;;
16272;SDS011;8244;50.044;9.006;2023-04-21T21:58:02;5.93;;;3.72;;
16272;SDS011;8244;50.044;9.006;2023-04-21T22:03:05;4.50;;;3.45;;
16272;SDS011;8244;50.044;9.006;2023-04-21T22:08:07;6.47;;;3.88;;
16272;SDS011;8244;50.044;9.006;2023-04-21T22:13:08;5.78;;;3.92;;
16272;SDS011;8244;50.044;9.006;2023-04-21T22:18:11;4.88;;;3.25;;
16272;SDS011;8244;50.044;9.006;2023-04-21T22:23:13;5.40;;;3.33;;
16272;SDS011;8244;50.044;9.006;2023-04-21T22:28:15;7.32;;;3.85;;
16272;SDS011;8244;50.044;9.006;2023-04-21T22:33:18;6.47;;;3.70;;
16272;SDS011;8244;50.044;9.006;2023-04-21T22:38:20;4.63;;;3.25;;
16272;SDS011;8244;50.044;9.006;2023-04-21T22:43:22;5.57;;;3.47;;
16272;SDS011;8244;50.044;9.006;2023-04-21T22:48:24;4.32;;;3.13;;
16272;SDS011;8244;50.044;9.006;2023-04-21T22:53:27;5.38;;;3.60;;
16272;SDS011;8244;50.044;9.006;2023-04-21T22:58:28;5.15;;;3.70;;
16272;SDS011;8244;50.044;9.006;2023-04-21T23:03:31;6.68;;;3.85;;
16272;SDS011;8244;50.044;9.006;2023-04-21T23:08:33;5.60;;;3.40;;
16272;SDS011;8244;50.044;9.006;2023-04-21T23:13:35;9.95;;;3.63;;
16272;SDS011;8244;50.044;9.006;2023-04-21T23:18:40;4.65;;;3.30;;
16272;SDS011;8244;50.044;9.006;2023-04-21T23:23:41;5.85;;;3.05;;
16272;SDS011;8244;50.044;9.006;2023-04-21T23:28:43;3.58;;;2.60;;
16272;SDS011;8244;50.044;9.006;2023-04-21T23:33:46;4.07;;;2.50;;
16272;SDS011;8244;50.044;9.006;2023-04-21T23:38:48;5.72;;;2.58;;
16272;SDS011;8244;50.044;9.006;2023-04-21T23:43:50;5.28;;;2.55;;
16272;SDS011;8244;50.044;9.006;2023-04-21T23:48:53;4.00;;;2.47;;
16272;SDS011;8244;50.044;9.006;2023-04-21T23:53:54;3.95;;;2.50;;
16272;SDS011;8244;50.044;9.006;2023-04-21T23:58:56;3.60;;;2.80;;
